sensor_id;sensor_type;location;lat;lon;timestamp;P1;durP1;ratioP1;P2;durP2;ratioP2
9809;SDS011;4944;52.514;13.192;2022-09-17T00:01:17;3.67;;;1.63;;
9809;SDS011;4944;52.514;13.192;2022-09-17T00:03:47;5.90;;;1.90;;
9809;SDS011;4944;52.514;13.192;2022-09-17T00:06:22;4.13;;;1.27;;
9809;SDS011;4944;52.514;13.192;2022-09-17T00:08:50;4.23;;;1.70;;
9809;SDS011;4944;52.514;13.192;2022-09-17T00:11:21;5.50;;;1.70;;
9809;SDS011;4944;52.514;13.192;2022-09-17T00:13:49;2.53;;;1.50;;
9809;SDS011;4944;52.514;13.192;2022-09-17T00:16:29;4.10;;;1.60;;
9809;SDS011;4944;52.514;13.192;2022-09-17T00:18:58;2.80;;;1.50;;
9809;SDS011;4944;52.514;13.192;2022-09-17T00:21:26;3.53;;;1.70;;
9809;SDS011;4944;52.514;13.192;2022-09-17T00:23:54;5.67;;;1.60;;
9809;SDS011;4944;52.514;13.192;2022-09-17T00:26:22;4.03;;;1.57;;
9809;SDS011;4944;52.514;13.192;2022-09-17T00:28:50;5.23;;;1.57;;
9809;SDS011;4944;52.514;13.192;2022-09-17T00:31:18;3.77;;;1.47;;
9809;SDS011;4944;52.514;13.192;2022-09-17T00:33:46;3.43;;;1.43;;
9809;SDS011;4944;52.514;13.192;2022-09-17T00:36:16;1.97;;;1.50;;
9809;SDS011;4944;52.514;13.192;2022-09-17T00:38:48;4.30;;;1.50;;
9809;SDS011;4944;52.514;13.192;2022-09-17T00:41:15;5.00;;;1.60;;
9809;SDS011;4944;52.514;13.192;2022-09-17T00:43:45;5.23;;;1.70;;
9809;SDS011;4944;52.514;13.192;2022-09-17T00:46:21;4.90;;;1.90;;
9809;SDS011;4944;52.514;13.192;2022-09-17T00:48:54;5.57;;;1.83;;
9809;SDS011;4944;52.514;13.192;2022-09-17T00:51:25;5.80;;;1.57;;
9809;SDS011;4944;52.514;13.192;2022-09-17T00:53:57;6.50;;;1.63;;
9809;SDS011;4944;52.514;13.192;2022-09-17T00:56:26;2.37;;;1.60;;
9809;SDS011;4944;52.514;13.192;2022-09-17T00:58:56;10.63;;;2.17;;
9809;SDS011;4944;52.514;13.192;2022-09-17T01:01:25;3.67;;;1.47;;
9809;SDS011;4944;52.514;13.192;2022-09-17T01:03:52;4.97;;;1.73;;
9809;SDS011;4944;52.514;13.192;2022-09-17T01:06:22;5.17;;;2.10;;
9809;SDS011;4944;52.514;13.192;2022-09-17T01:08:59;5.23;;;1.77;;
9809;SDS011;4944;52.514;13.192;2022-09-17T01:11:39;7.60;;;1.67;;
9809;SDS011;4944;52.514;13.192;2022-09-17T01:14:31;4.77;;;1.83;;
9809;SDS011;4944;52.514;13.192;2022-09-17T01:17:11;5.87;;;1.37;;
9809;SDS011;4944;52.514;13.192;2022-09-17T01:20:04;5.73;;;1.73;;
9809;SDS011;4944;52.514;13.192;2022-09-17T01:22:52;6.43;;;1.80;;
9809;SDS011;4944;52.514;13.192;2022-09-17T01:25:33;5.10;;;1.70;;
9809;SDS011;4944;52.514;13.192;2022-09-17T01:28:16;3.60;;;1.80;;
9809;SDS011;4944;52.514;13.192;2022-09-17T01:30:59;6.57;;;1.47;;
9809;SDS011;4944;52.514;13.192;2022-09-17T01:33:32;6.30;;;2.10;;
9809;SDS011;4944;52.514;13.192;2022-09-17T01:38:59;7.03;;;2.10;;
9809;SDS011;4944;52.514;13.192;2022-09-17T01:41:32;3.17;;;1.60;;
9809;SDS011;4944;52.514;13.192;2022-09-17T01:44:06;7.40;;;2.00;;
9809;SDS011;4944;52.514;13.192;2022-09-17T01:46:42;8.87;;;1.90;;
9809;SDS011;4944;52.514;13.192;2022-09-17T01:49:11;3.67;;;1.60;;
9809;SDS011;4944;52.514;13.192;2022-09-17T01:51:42;5.33;;;1.77;;
9809;SDS011;4944;52.514;13.192;2022-09-17T01:54:15;4.77;;;1.80;;
9809;SDS011;4944;52.514;13.192;2022-09-17T01:56:46;8.53;;;1.70;;
9809;SDS011;4944;52.514;13.192;2022-09-17T01:59:17;5.77;;;2.10;;
9809;SDS011;4944;52.514;13.192;2022-09-17T02:01:50;6.60;;;2.20;;
9809;SDS011;4944;52.514;13.192;2022-09-17T02:04:22;5.97;;;2.00;;
9809;SDS011;4944;52.514;13.192;2022-09-17T02:06:55;5.20;;;1.50;;
9809;SDS011;4944;52.514;13.192;2022-09-17T02:09:26;7.03;;;2.13;;
9809;SDS011;4944;52.514;13.192;2022-09-17T02:11:59;5.87;;;1.70;;
9809;SDS011;4944;52.514;13.192;2022-09-17T02:14:29;4.87;;;2.20;;
9809;SDS011;4944;52.514;13.192;2022-09-17T02:17:04;6.43;;;2.07;;
9809;SDS011;4944;52.514;13.192;2022-09-17T02:19:35;7.43;;;1.90;;
9809;SDS011;4944;52.514;13.192;2022-09-17T02:22:06;6.43;;;2.00;;
9809;SDS011;4944;52.514;13.192;2022-09-17T02:24:43;5.17;;;2.17;;
9809;SDS011;4944;52.514;13.192;2022-09-17T02:27:16;4.60;;;1.97;;
9809;SDS011;4944;52.514;13.192;2022-09-17T02:29:48;6.57;;;1.80;;
9809;SDS011;4944;52.514;13.192;2022-09-17T02:32:16;6.73;;;2.60;;
9809;SDS011;4944;52.514;13.192;2022-09-17T02:34:43;5.77;;;2.53;;
9809;SDS011;4944;52.514;13.192;2022-09-17T02:37:10;6.10;;;1.97;;
9809;SDS011;4944;52.514;13.192;2022-09-17T02:39:37;5.27;;;2.23;;
9809;SDS011;4944;52.514;13.192;2022-09-17T02:42:05;8.00;;;2.33;;
9809;SDS011;4944;52.514;13.192;2022-09-17T02:44:37;4.73;;;2.07;;
9809;SDS011;4944;52.514;13.192;2022-09-17T02:47:15;8.40;;;2.10;;
9809;SDS011;4944;52.514;13.192;2022-09-17T02:50:23;6.23;;;2.17;;
9809;SDS011;4944;52.514;13.192;2022-09-17T02:53:04;4.90;;;1.70;;
9809;SDS011;4944;52.514;13.192;2022-09-17T02:55:40;4.63;;;1.87;;
9809;SDS011;4944;52.514;13.192;2022-09-17T02:58:17;7.67;;;1.93;;
9809;SDS011;4944;52.514;13.192;2022-09-17T03:00:51;7.37;;;1.80;;
9809;SDS011;4944;52.514;13.192;2022-09-17T03:03:21;5.20;;;1.80;;
9809;SDS011;4944;52.514;13.192;2022-09-17T03:05:52;5.40;;;2.17;;
9809;SDS011;4944;52.514;13.192;2022-09-17T03:08:26;10.30;;;2.73;;
9809;SDS011;4944;52.514;13.192;2022-09-17T03:14:16;10.60;;;2.40;;
9809;SDS011;4944;52.514;13.192;2022-09-17T03:16:44;2.40;;;1.60;;
9809;SDS011;4944;52.514;13.192;2022-09-17T03:19:12;4.50;;;1.50;;
9809;SDS011;4944;52.514;13.192;2022-09-17T03:21:39;8.17;;;2.00;;
9809;SDS011;4944;52.514;13.192;2022-09-17T03:24:06;5.50;;;2.27;;
9809;SDS011;4944;52.514;13.192;2022-09-17T03:26:34;5.80;;;1.80;;
9809;SDS011;4944;52.514;13.192;2022-09-17T03:29:01;4.27;;;1.77;;
9809;SDS011;4944;52.514;13.192;2022-09-17T03:31:28;5.77;;;1.83;;
9809;SDS011;4944;52.514;13.192;2022-09-17T03:33:55;7.50;;;2.20;;
9809;SDS011;4944;52.514;13.192;2022-09-17T03:36:24;6.23;;;2.00;;
9809;SDS011;4944;52.514;13.192;2022-09-17T03:38:52;3.57;;;1.80;;
9809;SDS011;4944;52.514;13.192;2022-09-17T03:41:19;6.73;;;2.07;;
9809;SDS011;4944;52.514;13.192;2022-09-17T03:43:46;4.63;;;1.57;;
9809;SDS011;4944;52.514;13.192;2022-09-17T03:46:13;5.03;;;2.03;;
9809;SDS011;4944;52.514;13.192;2022-09-17T03:48:39;7.00;;;2.10;;
9809;SDS011;4944;52.514;13.192;2022-09-17T03:51:06;7.43;;;1.83;;
9809;SDS011;4944;52.514;13.192;2022-09-17T03:53:34;5.33;;;1.90;;
9809;SDS011;4944;52.514;13.192;2022-09-17T03:56:02;5.60;;;2.00;;
9809;SDS011;4944;52.514;13.192;2022-09-17T03:58:32;4.67;;;1.53;;
9809;SDS011;4944;52.514;13.192;2022-09-17T04:00:59;8.77;;;2.00;;
9809;SDS011;4944;52.514;13.192;2022-09-17T04:03:27;7.63;;;1.83;;
9809;SDS011;4944;52.514;13.192;2022-09-17T04:05:54;6.03;;;1.90;;
9809;SDS011;4944;52.514;13.192;2022-09-17T04:08:21;3.30;;;1.30;;
9809;SDS011;4944;52.514;13.192;2022-09-17T04:10:49;5.10;;;1.70;;
9809;SDS011;4944;52.514;13.192;2022-09-17T04:13:17;5.67;;;1.90;;
9809;SDS011;4944;52.514;13.192;2022-09-17T04:15:43;4.20;;;1.53;;
9809;SDS011;4944;52.514;13.192;2022-09-17T04:18:11;7.03;;;1.83;;
9809;SDS011;4944;52.514;13.192;2022-09-17T04:20:38;4.43;;;1.73;;
9809;SDS011;4944;52.514;13.192;2022-09-17T04:23:05;6.93;;;1.87;;
9809;SDS011;4944;52.514;13.192;2022-09-17T04:25:32;6.30;;;2.00;;
9809;SDS011;4944;52.514;13.192;2022-09-17T04:28:00;5.27;;;1.90;;
9809;SDS011;4944;52.514;13.192;2022-09-17T04:30:27;10.80;;;2.07;;
9809;SDS011;4944;52.514;13.192;2022-09-17T04:32:54;4.37;;;1.70;;
9809;SDS011;4944;52.514;13.192;2022-09-17T04:35:21;5.13;;;1.60;;
9809;SDS011;4944;52.514;13.192;2022-09-17T04:37:50;4.33;;;1.80;;
9809;SDS011;4944;52.514;13.192;2022-09-17T04:40:18;7.37;;;1.73;;
9809;SDS011;4944;52.514;13.192;2022-09-17T04:42:45;5.37;;;1.70;;
9809;SDS011;4944;52.514;13.192;2022-09-17T04:45:13;6.43;;;1.97;;
9809;SDS011;4944;52.514;13.192;2022-09-17T04:47:40;10.23;;;2.20;;
9809;SDS011;4944;52.514;13.192;2022-09-17T04:50:07;5.17;;;1.80;;
9809;SDS011;4944;52.514;13.192;2022-09-17T04:52:35;7.43;;;1.80;;
9809;SDS011;4944;52.514;13.192;2022-09-17T04:55:01;7.37;;;1.70;;
9809;SDS011;4944;52.514;13.192;2022-09-17T04:57:28;7.13;;;2.10;;
9809;SDS011;4944;52.514;13.192;2022-09-17T04:59:55;7.23;;;2.13;;
9809;SDS011;4944;52.514;13.192;2022-09-17T05:02:23;3.10;;;1.80;;
9809;SDS011;4944;52.514;13.192;2022-09-17T05:04:50;8.60;;;2.03;;
9809;SDS011;4944;52.514;13.192;2022-09-17T05:07:17;3.20;;;1.60;;
9809;SDS011;4944;52.514;13.192;2022-09-17T05:09:43;7.77;;;2.67;;
9809;SDS011;4944;52.514;13.192;2022-09-17T05:12:10;6.23;;;2.03;;
9809;SDS011;4944;52.514;13.192;2022-09-17T05:14:37;11.10;;;2.30;;
9809;SDS011;4944;52.514;13.192;2022-09-17T05:17:03;6.83;;;1.97;;
9809;SDS011;4944;52.514;13.192;2022-09-17T05:19:32;6.70;;;2.00;;
9809;SDS011;4944;52.514;13.192;2022-09-17T05:21:58;5.17;;;2.00;;
9809;SDS011;4944;52.514;13.192;2022-09-17T05:24:25;2.63;;;1.63;;
9809;SDS011;4944;52.514;13.192;2022-09-17T05:26:52;6.03;;;2.50;;
9809;SDS011;4944;52.514;13.192;2022-09-17T05:29:19;4.17;;;1.90;;
9809;SDS011;4944;52.514;13.192;2022-09-17T05:31:45;7.33;;;3.07;;
9809;SDS011;4944;52.514;13.192;2022-09-17T05:34:12;5.50;;;2.20;;
9809;SDS011;4944;52.514;13.192;2022-09-17T05:36:40;4.73;;;2.20;;
9809;SDS011;4944;52.514;13.192;2022-09-17T05:39:07;6.27;;;2.43;;
9809;SDS011;4944;52.514;13.192;2022-09-17T05:41:34;5.70;;;2.53;;
9809;SDS011;4944;52.514;13.192;2022-09-17T05:44:01;8.50;;;2.60;;
9809;SDS011;4944;52.514;13.192;2022-09-17T05:46:28;9.47;;;3.07;;
9809;SDS011;4944;52.514;13.192;2022-09-17T05:48:54;10.33;;;2.73;;
9809;SDS011;4944;52.514;13.192;2022-09-17T05:51:22;11.57;;;3.20;;
9809;SDS011;4944;52.514;13.192;2022-09-17T05:53:50;13.13;;;3.57;;
9809;SDS011;4944;52.514;13.192;2022-09-17T05:56:19;10.43;;;3.13;;
9809;SDS011;4944;52.514;13.192;2022-09-17T05:58:48;8.57;;;3.37;;
9809;SDS011;4944;52.514;13.192;2022-09-17T06:01:14;8.43;;;3.27;;
9809;SDS011;4944;52.514;13.192;2022-09-17T06:03:41;11.80;;;3.63;;
9809;SDS011;4944;52.514;13.192;2022-09-17T06:06:08;9.83;;;3.60;;
9809;SDS011;4944;52.514;13.192;2022-09-17T06:08:35;21.07;;;3.83;;
9809;SDS011;4944;52.514;13.192;2022-09-17T06:11:07;14.67;;;3.33;;
9809;SDS011;4944;52.514;13.192;2022-09-17T06:13:34;9.33;;;3.00;;
9809;SDS011;4944;52.514;13.192;2022-09-17T06:16:02;12.20;;;3.43;;
9809;SDS011;4944;52.514;13.192;2022-09-17T06:18:30;10.57;;;4.00;;
9809;SDS011;4944;52.514;13.192;2022-09-17T06:20:58;8.80;;;3.40;;
9809;SDS011;4944;52.514;13.192;2022-09-17T06:23:26;12.20;;;3.50;;
9809;SDS011;4944;52.514;13.192;2022-09-17T06:25:55;11.83;;;3.50;;
9809;SDS011;4944;52.514;13.192;2022-09-17T06:28:24;15.33;;;3.37;;
9809;SDS011;4944;52.514;13.192;2022-09-17T06:30:52;8.33;;;3.27;;
9809;SDS011;4944;52.514;13.192;2022-09-17T06:33:21;12.77;;;3.40;;
9809;SDS011;4944;52.514;13.192;2022-09-17T06:35:48;12.37;;;3.70;;
9809;SDS011;4944;52.514;13.192;2022-09-17T06:38:21;12.83;;;3.60;;
9809;SDS011;4944;52.514;13.192;2022-09-17T06:40:49;15.63;;;3.43;;
9809;SDS011;4944;52.514;13.192;2022-09-17T06:43:16;12.87;;;3.47;;
9809;SDS011;4944;52.514;13.192;2022-09-17T06:45:45;13.63;;;3.23;;
9809;SDS011;4944;52.514;13.192;2022-09-17T06:48:16;10.43;;;2.97;;
9809;SDS011;4944;52.514;13.192;2022-09-17T06:50:43;9.83;;;3.17;;
9809;SDS011;4944;52.514;13.192;2022-09-17T06:53:10;12.03;;;3.70;;
9809;SDS011;4944;52.514;13.192;2022-09-17T06:55:37;8.37;;;3.20;;
9809;SDS011;4944;52.514;13.192;2022-09-17T06:58:03;14.27;;;3.30;;
9809;SDS011;4944;52.514;13.192;2022-09-17T07:00:30;6.67;;;2.53;;
9809;SDS011;4944;52.514;13.192;2022-09-17T07:02:58;7.43;;;2.77;;
9809;SDS011;4944;52.514;13.192;2022-09-17T07:05:27;15.40;;;3.00;;
9809;SDS011;4944;52.514;13.192;2022-09-17T07:07:56;13.67;;;3.00;;
9809;SDS011;4944;52.514;13.192;2022-09-17T07:10:22;9.33;;;2.63;;
9809;SDS011;4944;52.514;13.192;2022-09-17T07:12:50;8.13;;;2.43;;
9809;SDS011;4944;52.514;13.192;2022-09-17T07:15:17;9.37;;;2.80;;
9809;SDS011;4944;52.514;13.192;2022-09-17T07:17:44;9.33;;;2.63;;
9809;SDS011;4944;52.514;13.192;2022-09-17T07:20:12;10.37;;;2.77;;
9809;SDS011;4944;52.514;13.192;2022-09-17T07:22:39;9.33;;;2.47;;
9809;SDS011;4944;52.514;13.192;2022-09-17T07:25:06;10.43;;;2.70;;
9809;SDS011;4944;52.514;13.192;2022-09-17T07:27:34;11.00;;;2.63;;
9809;SDS011;4944;52.514;13.192;2022-09-17T07:30:01;11.60;;;3.10;;
9809;SDS011;4944;52.514;13.192;2022-09-17T07:32:28;9.33;;;2.70;;
9809;SDS011;4944;52.514;13.192;2022-09-17T07:34:55;8.30;;;2.83;;
9809;SDS011;4944;52.514;13.192;2022-09-17T07:37:23;9.67;;;2.30;;
9809;SDS011;4944;52.514;13.192;2022-09-17T07:39:50;10.00;;;2.40;;
9809;SDS011;4944;52.514;13.192;2022-09-17T07:42:16;8.03;;;2.57;;
9809;SDS011;4944;52.514;13.192;2022-09-17T07:44:43;10.50;;;2.93;;
9809;SDS011;4944;52.514;13.192;2022-09-17T07:47:10;9.47;;;2.53;;
9809;SDS011;4944;52.514;13.192;2022-09-17T07:49:37;10.10;;;2.80;;
9809;SDS011;4944;52.514;13.192;2022-09-17T07:52:04;10.80;;;2.63;;
9809;SDS011;4944;52.514;13.192;2022-09-17T07:54:32;8.73;;;2.40;;
9809;SDS011;4944;52.514;13.192;2022-09-17T07:57:02;7.80;;;3.07;;
9809;SDS011;4944;52.514;13.192;2022-09-17T07:59:28;10.77;;;2.73;;
9809;SDS011;4944;52.514;13.192;2022-09-17T08:01:55;7.73;;;2.40;;
9809;SDS011;4944;52.514;13.192;2022-09-17T08:04:22;9.50;;;2.60;;
9809;SDS011;4944;52.514;13.192;2022-09-17T08:06:49;8.73;;;2.57;;
9809;SDS011;4944;52.514;13.192;2022-09-17T08:09:16;8.67;;;2.50;;
9809;SDS011;4944;52.514;13.192;2022-09-17T08:11:44;9.87;;;2.77;;
9809;SDS011;4944;52.514;13.192;2022-09-17T08:14:11;10.63;;;2.47;;
9809;SDS011;4944;52.514;13.192;2022-09-17T08:16:40;6.17;;;2.67;;
9809;SDS011;4944;52.514;13.192;2022-09-17T08:19:07;8.30;;;2.67;;
9809;SDS011;4944;52.514;13.192;2022-09-17T08:21:34;7.23;;;2.33;;
9809;SDS011;4944;52.514;13.192;2022-09-17T08:24:01;12.90;;;3.10;;
9809;SDS011;4944;52.514;13.192;2022-09-17T08:26:28;6.27;;;2.50;;
9809;SDS011;4944;52.514;13.192;2022-09-17T08:28:56;6.90;;;2.50;;
9809;SDS011;4944;52.514;13.192;2022-09-17T08:31:23;7.97;;;2.53;;
9809;SDS011;4944;52.514;13.192;2022-09-17T08:33:52;5.33;;;2.63;;
9809;SDS011;4944;52.514;13.192;2022-09-17T08:36:19;6.57;;;2.10;;
9809;SDS011;4944;52.514;13.192;2022-09-17T08:38:46;6.23;;;2.47;;
9809;SDS011;4944;52.514;13.192;2022-09-17T08:41:19;7.57;;;2.33;;
9809;SDS011;4944;52.514;13.192;2022-09-17T08:43:53;6.80;;;2.37;;
9809;SDS011;4944;52.514;13.192;2022-09-17T08:46:33;5.83;;;2.23;;
9809;SDS011;4944;52.514;13.192;2022-09-17T08:49:09;11.30;;;2.97;;
9809;SDS011;4944;52.514;13.192;2022-09-17T08:51:47;4.83;;;2.17;;
9809;SDS011;4944;52.514;13.192;2022-09-17T08:54:26;7.13;;;2.37;;
9809;SDS011;4944;52.514;13.192;2022-09-17T08:57:03;8.67;;;2.60;;
9809;SDS011;4944;52.514;13.192;2022-09-17T08:59:44;5.00;;;2.10;;
9809;SDS011;4944;52.514;13.192;2022-09-17T09:02:21;8.90;;;2.60;;
9809;SDS011;4944;52.514;13.192;2022-09-17T09:05:00;6.23;;;2.03;;
9809;SDS011;4944;52.514;13.192;2022-09-17T09:07:30;7.13;;;2.20;;
9809;SDS011;4944;52.514;13.192;2022-09-17T09:10:04;5.13;;;2.07;;
9809;SDS011;4944;52.514;13.192;2022-09-17T09:12:39;7.73;;;2.10;;
9809;SDS011;4944;52.514;13.192;2022-09-17T09:15:14;12.40;;;3.40;;
9809;SDS011;4944;52.514;13.192;2022-09-17T09:17:57;7.37;;;2.63;;
9809;SDS011;4944;52.514;13.192;2022-09-17T09:20:29;6.83;;;2.33;;
9809;SDS011;4944;52.514;13.192;2022-09-17T09:23:03;7.30;;;2.00;;
9809;SDS011;4944;52.514;13.192;2022-09-17T09:25:38;5.77;;;2.00;;
9809;SDS011;4944;52.514;13.192;2022-09-17T09:28:16;5.47;;;1.83;;
9809;SDS011;4944;52.514;13.192;2022-09-17T09:31:00;4.03;;;1.80;;
9809;SDS011;4944;52.514;13.192;2022-09-17T09:33:36;6.67;;;2.10;;
9809;SDS011;4944;52.514;13.192;2022-09-17T09:36:06;7.77;;;2.20;;
9809;SDS011;4944;52.514;13.192;2022-09-17T09:38:36;6.57;;;2.30;;
9809;SDS011;4944;52.514;13.192;2022-09-17T09:41:10;6.17;;;1.87;;
9809;SDS011;4944;52.514;13.192;2022-09-17T09:43:40;5.73;;;1.90;;
9809;SDS011;4944;52.514;13.192;2022-09-17T09:46:17;8.67;;;2.10;;
9809;SDS011;4944;52.514;13.192;2022-09-17T09:48:59;6.47;;;2.20;;
9809;SDS011;4944;52.514;13.192;2022-09-17T09:51:35;5.73;;;1.97;;
9809;SDS011;4944;52.514;13.192;2022-09-17T09:54:17;8.30;;;2.00;;
9809;SDS011;4944;52.514;13.192;2022-09-17T09:56:57;5.93;;;1.87;;
9809;SDS011;4944;52.514;13.192;2022-09-17T09:59:30;7.67;;;2.07;;
9809;SDS011;4944;52.514;13.192;2022-09-17T10:01:58;4.47;;;2.07;;
9809;SDS011;4944;52.514;13.192;2022-09-17T10:04:25;7.97;;;2.17;;
9809;SDS011;4944;52.514;13.192;2022-09-17T10:06:54;8.90;;;2.00;;
9809;SDS011;4944;52.514;13.192;2022-09-17T10:09:27;5.33;;;2.07;;
9809;SDS011;4944;52.514;13.192;2022-09-17T10:12:03;5.77;;;2.60;;
9809;SDS011;4944;52.514;13.192;2022-09-17T10:14:39;6.83;;;2.13;;
9809;SDS011;4944;52.514;13.192;2022-09-17T10:17:16;4.00;;;1.50;;
9809;SDS011;4944;52.514;13.192;2022-09-17T10:22:39;6.03;;;1.90;;
9809;SDS011;4944;52.514;13.192;2022-09-17T10:25:17;10.93;;;1.90;;
9809;SDS011;4944;52.514;13.192;2022-09-17T10:28:04;7.40;;;1.73;;
9809;SDS011;4944;52.514;13.192;2022-09-17T10:30:56;6.17;;;1.87;;
9809;SDS011;4944;52.514;13.192;2022-09-17T10:33:26;7.60;;;2.10;;
9809;SDS011;4944;52.514;13.192;2022-09-17T10:35:55;3.60;;;1.53;;
9809;SDS011;4944;52.514;13.192;2022-09-17T10:38:26;6.30;;;1.77;;
9809;SDS011;4944;52.514;13.192;2022-09-17T10:41:11;8.00;;;1.87;;
9809;SDS011;4944;52.514;13.192;2022-09-17T10:43:40;7.47;;;2.00;;
9809;SDS011;4944;52.514;13.192;2022-09-17T10:46:07;6.80;;;2.23;;
9809;SDS011;4944;52.514;13.192;2022-09-17T10:48:39;7.93;;;2.00;;
9809;SDS011;4944;52.514;13.192;2022-09-17T10:51:09;8.03;;;2.03;;
9809;SDS011;4944;52.514;13.192;2022-09-17T10:53:54;5.53;;;1.73;;
9809;SDS011;4944;52.514;13.192;2022-09-17T10:56:39;4.83;;;1.60;;
9809;SDS011;4944;52.514;13.192;2022-09-17T10:59:22;7.23;;;2.13;;
9809;SDS011;4944;52.514;13.192;2022-09-17T11:02:08;2.60;;;1.53;;
9809;SDS011;4944;52.514;13.192;2022-09-17T11:04:54;6.27;;;2.23;;
9809;SDS011;4944;52.514;13.192;2022-09-17T11:07:31;4.40;;;1.60;;
9809;SDS011;4944;52.514;13.192;2022-09-17T11:10:09;3.80;;;1.60;;
9809;SDS011;4944;52.514;13.192;2022-09-17T11:12:42;5.63;;;1.70;;
9809;SDS011;4944;52.514;13.192;2022-09-17T11:15:23;4.10;;;1.60;;
9809;SDS011;4944;52.514;13.192;2022-09-17T11:20:57;4.20;;;1.53;;
9809;SDS011;4944;52.514;13.192;2022-09-17T11:24:00;6.73;;;1.60;;
9809;SDS011;4944;52.514;13.192;2022-09-17T11:26:51;6.37;;;2.47;;
9809;SDS011;4944;52.514;13.192;2022-09-17T11:29:28;9.20;;;2.80;;
9809;SDS011;4944;52.514;13.192;2022-09-17T11:32:11;5.40;;;1.90;;
9809;SDS011;4944;52.514;13.192;2022-09-17T11:34:49;4.73;;;1.73;;
9809;SDS011;4944;52.514;13.192;2022-09-17T11:37:25;4.73;;;1.50;;
9809;SDS011;4944;52.514;13.192;2022-09-17T11:39:57;3.23;;;1.50;;
9809;SDS011;4944;52.514;13.192;2022-09-17T11:42:29;3.77;;;1.57;;
9809;SDS011;4944;52.514;13.192;2022-09-17T11:45:02;2.30;;;1.40;;
9809;SDS011;4944;52.514;13.192;2022-09-17T11:47:32;2.60;;;1.60;;
9809;SDS011;4944;52.514;13.192;2022-09-17T11:50:02;4.17;;;1.30;;
9809;SDS011;4944;52.514;13.192;2022-09-17T11:52:41;4.87;;;1.50;;
9809;SDS011;4944;52.514;13.192;2022-09-17T11:55:16;2.90;;;1.40;;
9809;SDS011;4944;52.514;13.192;2022-09-17T11:57:45;5.40;;;1.67;;
9809;SDS011;4944;52.514;13.192;2022-09-17T12:00:14;4.70;;;1.80;;
9809;SDS011;4944;52.514;13.192;2022-09-17T12:02:44;8.90;;;1.63;;
9809;SDS011;4944;52.514;13.192;2022-09-17T12:05:18;7.27;;;1.57;;
9809;SDS011;4944;52.514;13.192;2022-09-17T12:07:52;3.20;;;1.43;;
9809;SDS011;4944;52.514;13.192;2022-09-17T12:10:31;4.10;;;1.33;;
9809;SDS011;4944;52.514;13.192;2022-09-17T12:13:06;2.53;;;1.10;;
9809;SDS011;4944;52.514;13.192;2022-09-17T12:15:42;5.77;;;1.37;;
9809;SDS011;4944;52.514;13.192;2022-09-17T12:18:18;3.17;;;1.33;;
9809;SDS011;4944;52.514;13.192;2022-09-17T12:20:52;2.40;;;1.10;;
9809;SDS011;4944;52.514;13.192;2022-09-17T12:23:26;4.40;;;1.37;;
9809;SDS011;4944;52.514;13.192;2022-09-17T12:26:00;5.80;;;1.40;;
9809;SDS011;4944;52.514;13.192;2022-09-17T12:28:38;3.57;;;1.40;;
9809;SDS011;4944;52.514;13.192;2022-09-17T12:31:12;3.63;;;1.50;;
9809;SDS011;4944;52.514;13.192;2022-09-17T12:33:48;4.87;;;1.50;;
9809;SDS011;4944;52.514;13.192;2022-09-17T12:36:32;3.87;;;1.30;;
9809;SDS011;4944;52.514;13.192;2022-09-17T12:42:14;4.87;;;1.50;;
9809;SDS011;4944;52.514;13.192;2022-09-17T12:47:58;4.57;;;1.73;;
9809;SDS011;4944;52.514;13.192;2022-09-17T12:50:37;4.33;;;1.30;;
9809;SDS011;4944;52.514;13.192;2022-09-17T12:53:13;2.23;;;1.00;;
9809;SDS011;4944;52.514;13.192;2022-09-17T12:55:52;3.37;;;1.10;;
9809;SDS011;4944;52.514;13.192;2022-09-17T12:58:48;3.20;;;1.23;;
9809;SDS011;4944;52.514;13.192;2022-09-17T13:01:31;2.33;;;1.20;;
9809;SDS011;4944;52.514;13.192;2022-09-17T13:04:10;2.87;;;0.80;;
9809;SDS011;4944;52.514;13.192;2022-09-17T13:07:03;3.90;;;1.73;;
9809;SDS011;4944;52.514;13.192;2022-09-17T13:12:53;4.97;;;1.57;;
9809;SDS011;4944;52.514;13.192;2022-09-17T13:15:36;2.93;;;1.27;;
9809;SDS011;4944;52.514;13.192;2022-09-17T13:18:11;4.13;;;1.10;;
9809;SDS011;4944;52.514;13.192;2022-09-17T13:20:43;4.60;;;1.40;;
9809;SDS011;4944;52.514;13.192;2022-09-17T13:23:32;1.60;;;1.07;;
9809;SDS011;4944;52.514;13.192;2022-09-17T13:26:07;2.87;;;1.20;;
9809;SDS011;4944;52.514;13.192;2022-09-17T13:28:37;3.10;;;1.40;;
9809;SDS011;4944;52.514;13.192;2022-09-17T13:31:05;2.37;;;1.27;;
9809;SDS011;4944;52.514;13.192;2022-09-17T13:33:49;3.23;;;1.40;;
9809;SDS011;4944;52.514;13.192;2022-09-17T13:36:33;4.30;;;1.80;;
9809;SDS011;4944;52.514;13.192;2022-09-17T13:39:08;3.97;;;1.13;;
9809;SDS011;4944;52.514;13.192;2022-09-17T13:41:37;6.73;;;1.77;;
9809;SDS011;4944;52.514;13.192;2022-09-17T13:44:07;2.80;;;1.47;;
9809;SDS011;4944;52.514;13.192;2022-09-17T13:46:36;4.50;;;1.30;;
9809;SDS011;4944;52.514;13.192;2022-09-17T13:49:04;2.33;;;1.50;;
9809;SDS011;4944;52.514;13.192;2022-09-17T13:51:47;4.67;;;1.47;;
9809;SDS011;4944;52.514;13.192;2022-09-17T13:54:19;5.10;;;1.50;;
9809;SDS011;4944;52.514;13.192;2022-09-17T13:57:02;3.50;;;1.30;;
9809;SDS011;4944;52.514;13.192;2022-09-17T13:59:36;5.50;;;1.47;;
9809;SDS011;4944;52.514;13.192;2022-09-17T14:07:50;4.13;;;1.47;;
9809;SDS011;4944;52.514;13.192;2022-09-17T14:10:35;5.43;;;1.73;;
9809;SDS011;4944;52.514;13.192;2022-09-17T14:13:23;5.10;;;1.40;;
9809;SDS011;4944;52.514;13.192;2022-09-17T14:15:59;3.33;;;1.43;;
9809;SDS011;4944;52.514;13.192;2022-09-17T14:21:23;2.50;;;1.00;;
9809;SDS011;4944;52.514;13.192;2022-09-17T14:23:54;1.77;;;0.80;;
9809;SDS011;4944;52.514;13.192;2022-09-17T14:29:40;3.20;;;1.50;;
9809;SDS011;4944;52.514;13.192;2022-09-17T14:32:20;2.10;;;0.80;;
9809;SDS011;4944;52.514;13.192;2022-09-17T14:34:54;2.90;;;0.90;;
9809;SDS011;4944;52.514;13.192;2022-09-17T14:37:21;1.77;;;0.77;;
9809;SDS011;4944;52.514;13.192;2022-09-17T14:39:49;2.30;;;0.70;;
9809;SDS011;4944;52.514;13.192;2022-09-17T14:42:18;2.07;;;0.80;;
9809;SDS011;4944;52.514;13.192;2022-09-17T14:44:50;0.37;;;0.33;;
9809;SDS011;4944;52.514;13.192;2022-09-17T14:47:24;0.77;;;0.43;;
9809;SDS011;4944;52.514;13.192;2022-09-17T14:49:51;0.57;;;0.30;;
9809;SDS011;4944;52.514;13.192;2022-09-17T14:52:22;0.30;;;0.20;;
9809;SDS011;4944;52.514;13.192;2022-09-17T14:57:43;0.60;;;0.43;;
9809;SDS011;4944;52.514;13.192;2022-09-17T15:00:15;0.63;;;0.40;;
9809;SDS011;4944;52.514;13.192;2022-09-17T15:02:48;0.30;;;0.30;;
9809;SDS011;4944;52.514;13.192;2022-09-17T15:05:24;0.20;;;0.17;;
9809;SDS011;4944;52.514;13.192;2022-09-17T15:08:03;0.77;;;0.20;;
9809;SDS011;4944;52.514;13.192;2022-09-17T15:10:31;0.60;;;0.40;;
9809;SDS011;4944;52.514;13.192;2022-09-17T15:13:00;1.80;;;0.33;;
9809;SDS011;4944;52.514;13.192;2022-09-17T15:15:27;0.20;;;0.20;;
9809;SDS011;4944;52.514;13.192;2022-09-17T15:17:56;2.57;;;0.30;;
9809;SDS011;4944;52.514;13.192;2022-09-17T15:20:24;4.73;;;0.40;;
9809;SDS011;4944;52.514;13.192;2022-09-17T15:22:55;0.53;;;0.30;;
9809;SDS011;4944;52.514;13.192;2022-09-17T15:25:32;0.23;;;0.20;;
9809;SDS011;4944;52.514;13.192;2022-09-17T15:28:03;0.83;;;0.50;;
9809;SDS011;4944;52.514;13.192;2022-09-17T15:30:37;0.63;;;0.30;;
9809;SDS011;4944;52.514;13.192;2022-09-17T15:33:08;1.87;;;0.57;;
9809;SDS011;4944;52.514;13.192;2022-09-17T15:35:37;0.70;;;0.20;;
9809;SDS011;4944;52.514;13.192;2022-09-17T15:38:18;2.33;;;0.47;;
9809;SDS011;4944;52.514;13.192;2022-09-17T15:40:46;0.53;;;0.40;;
9809;SDS011;4944;52.514;13.192;2022-09-17T15:43:17;0.60;;;0.40;;
9809;SDS011;4944;52.514;13.192;2022-09-17T15:45:50;2.63;;;0.40;;
9809;SDS011;4944;52.514;13.192;2022-09-17T15:48:22;0.73;;;0.30;;
9809;SDS011;4944;52.514;13.192;2022-09-17T15:51:00;1.70;;;0.67;;
9809;SDS011;4944;52.514;13.192;2022-09-17T15:53:31;2.10;;;0.70;;
9809;SDS011;4944;52.514;13.192;2022-09-17T15:56:04;1.03;;;0.43;;
9809;SDS011;4944;52.514;13.192;2022-09-17T15:58:35;2.53;;;0.50;;
9809;SDS011;4944;52.514;13.192;2022-09-17T16:04:23;1.90;;;0.80;;
9809;SDS011;4944;52.514;13.192;2022-09-17T16:06:52;0.60;;;0.50;;
9809;SDS011;4944;52.514;13.192;2022-09-17T16:12:11;2.60;;;0.60;;